Time;durP1;ratioP1;P1;durP2;ratioP2;P2;SDS_P1;SDS_P2;PMS_P1;PMS_P2;Temp;Humidity;BMP_temperature;BMP_pressure;BME280_temperature;BME280_humidity;BME280_pressure;Samples;Min_cycle;Max_cycle;Signal;HPM_P1;HPM_P2
2022/06/27 00:02:17;;;;;;;5.25;2.63;;;25.80;81.50;;;;;;5153713;27;20038;-71
2022/06/27 00:04:43;;;;;;;4.22;2.55;;;25.60;85.00;;;;;;5150160;27;20051;-71
2022/06/27 00:07:09;;;;;;;5.57;3.00;;;25.70;81.50;;;;;;5155590;27;20047;-70
2022/06/27 00:09:35;;;;;;;4.35;2.40;;;26.00;81.50;;;;;;5136068;27;20038;-71
2022/06/27 00:12:01;;;;;;;6.13;2.70;;;25.90;81.50;;;;;;5154745;27;20422;-72
2022/06/27 00:14:27;;;;;;;4.22;2.50;;;25.60;85.00;;;;;;5116843;27;20045;-71
2022/06/27 00:16:53;;;;;;;5.15;2.80;;;25.90;81.50;;;;;;5135514;27;20494;-71
2022/06/27 00:19:18;;;;;;;4.13;2.50;;;25.70;81.20;;;;;;5135932;27;20103;-70
2022/06/27 00:21:44;;;;;;;4.18;2.42;;;25.90;81.60;;;;;;5152511;27;20053;-71
2022/06/27 00:24:10;;;;;;;5.22;2.60;;;25.90;81.50;;;;;;5114940;28;20115;-69
2022/06/27 00:26:36;;;;;;;4.88;2.60;;;25.70;81.60;;;;;;5120860;27;20039;-71
2022/06/27 00:29:01;;;;;;;5.45;2.80;;;25.60;81.40;;;;;;5132899;27;20050;-72
2022/06/27 00:31:27;;;;;;;5.28;3.08;;;25.50;81.60;;;;;;5152566;27;20091;-71
2022/06/27 00:33:53;;;;;;;5.25;3.00;;;25.70;85.10;;;;;;5154549;27;20539;-71
2022/06/27 00:36:19;;;;;;;4.40;2.78;;;25.70;81.80;;;;;;5119402;27;20495;-71
2022/06/27 00:38:44;;;;;;;5.05;2.80;;;25.70;81.70;;;;;;5153936;27;20117;-72
2022/06/27 00:41:10;;;;;;;4.97;3.10;;;25.60;81.40;;;;;;5133892;27;20031;-71
2022/06/27 00:43:36;;;;;;;5.82;2.75;;;25.50;81.70;;;;;;5154139;27;20042;-69
2022/06/27 00:46:01;;;;;;;6.32;2.85;;;25.50;81.70;;;;;;5134633;27;20131;-71
2022/06/27 00:48:28;;;;;;;4.50;3.00;;;;;;;;;;5152465;27;20540;-63
2022/06/27 00:50:54;;;;;;;4.28;2.58;;;25.60;80.00;;;;;;5137144;27;20058;-72
2022/06/27 00:53:19;;;;;;;4.55;2.92;;;25.60;82.10;;;;;;5101536;27;20047;-68
2022/06/27 00:55:45;;;;;;;4.60;2.60;;;25.70;82.00;;;;;;5158680;27;20403;-70
2022/06/27 00:58:11;;;;;;;4.18;2.80;;;25.30;81.70;;;;;;5137581;27;20046;-71
2022/06/27 01:00:37;;;;;;;4.40;2.45;;;25.70;82.10;;;;;;5157540;27;20035;-71
2022/06/27 01:03:02;;;;;;;4.63;2.47;;;25.50;81.90;;;;;;5158107;27;20476;-70
2022/06/27 01:05:28;;;;;;;4.85;2.92;;;25.70;82.20;;;;;;5157707;27;20403;-70
2022/06/27 01:07:54;;;;;;;4.60;2.65;;;25.70;82.00;;;;;;5158684;27;20046;-71
2022/06/27 01:10:20;;;;;;;5.05;2.80;;;25.70;82.20;;;;;;5156210;27;20049;-71
2022/06/27 01:12:45;;;;;;;4.15;2.53;;;25.40;85.30;;;;;;5137146;27;20114;-71
2022/06/27 01:15:11;;;;;;;5.63;2.78;;;25.40;82.10;;;;;;5122100;27;20414;-68
2022/06/27 01:17:37;;;;;;;5.35;3.22;;;25.50;85.00;;;;;;5156057;27;20035;-69
2022/06/27 01:20:03;;;;;;;4.80;2.40;;;25.60;82.10;;;;;;5137426;27;20043;-67
2022/06/27 01:22:29;;;;;;;6.78;2.80;;;25.60;81.80;;;;;;5157399;27;20082;-71
2022/06/27 01:24:55;;;;;;;4.65;2.65;;;25.50;85.40;;;;;;5118370;27;20042;-71
2022/06/27 01:27:21;;;;;;;5.35;3.00;;;25.50;81.90;;;;;;5155646;27;20541;-71
2022/06/27 01:29:46;;;;;;;5.13;2.85;;;25.70;82.20;;;;;;5117537;27;20100;-72
2022/06/27 01:32:12;;;;;;;5.38;2.50;;;25.70;82.10;;;;;;5154684;27;20043;-73
2022/06/27 01:34:38;;;;;;;4.68;2.63;;;25.40;82.10;;;;;;5156207;27;20047;-69
2022/06/27 01:37:04;;;;;;;4.10;2.42;;;25.50;85.40;;;;;;5137914;27;20046;-70
2022/06/27 01:39:30;;;;;;;4.38;2.67;;;25.70;82.40;;;;;;5117792;27;20050;-70
2022/06/27 01:41:57;;;;;;;4.45;2.72;;;25.30;81.80;;;;;;5131978;27;20384;-70
2022/06/27 01:44:24;;;;;;;6.93;3.28;;;25.60;82.50;;;;;;5156318;27;20053;-71
2022/06/27 01:46:54;;;;;;;4.57;2.88;;;25.30;82.20;;;;;;5157347;27;20117;-68
2022/06/27 01:49:20;;;;;;;4.10;2.60;;;25.70;85.50;;;;;;5156390;27;20047;-70
2022/06/27 01:51:48;;;;;;;5.60;3.13;;;25.50;82.00;;;;;;5154935;27;20440;-71
2022/06/27 01:54:14;;;;;;;4.70;2.95;;;25.10;85.50;;;;;;5155000;27;20043;-70
2022/06/27 01:56:41;;;;;;;5.50;2.90;;;25.50;82.40;;;;;;5155722;27;20039;-69
2022/06/27 01:59:06;;;;;;;4.95;3.10;;;25.40;82.40;;;;;;5137881;27;20502;-69
2022/06/27 02:01:32;;;;;;;4.72;2.70;;;25.70;82.40;;;;;;5156519;27;20046;-71
2022/06/27 02:04:01;;;;;;;4.50;2.80;;;25.40;85.10;;;;;;5137645;27;20453;-71
2022/06/27 02:06:30;;;;;;;3.72;2.50;;;25.40;82.20;;;;;;5155195;27;20497;-70
2022/06/27 02:08:56;;;;;;;4.72;2.70;;;25.40;82.40;;;;;;5137648;27;20103;-66
2022/06/27 02:11:22;;;;;;;5.32;2.72;;;25.50;85.20;;;;;;5135753;27;20048;-71
2022/06/27 02:13:48;;;;;;;5.20;2.85;;;25.40;82.30;;;;;;5138023;27;20053;-71
2022/06/27 02:16:15;;;;;;;4.20;2.67;;;25.50;82.40;;;;;;5155585;27;20037;-71
2022/06/27 02:18:41;;;;;;;4.43;2.88;;;25.50;82.60;;;;;;5155813;27;20041;-71
2022/06/27 02:21:08;;;;;;;4.50;2.80;;;25.60;82.80;;;;;;5136346;27;20560;-70
2022/06/27 02:23:34;;;;;;;4.35;2.65;;;25.60;85.90;;;;;;5138562;27;20046;-66
2022/06/27 02:25:59;;;;;;;4.90;3.15;;;25.60;82.40;;;;;;5154656;27;20050;-68
2022/06/27 02:28:26;;;;;;;6.05;2.60;;;25.50;82.40;;;;;;5136552;27;20055;-67
2022/06/27 02:30:52;;;;;;;5.35;3.22;;;25.50;85.50;;;;;;5137794;27;20054;-71
2022/06/27 02:33:18;;;;;;;5.20;2.60;;;25.50;82.60;;;;;;5121132;27;20038;-67
2022/06/27 02:35:44;;;;;;;4.65;2.70;;;25.20;82.20;;;;;;5137599;27;20062;-71
2022/06/27 02:38:10;;;;;;;5.70;2.90;;;25.30;82.40;;;;;;5156034;27;20479;-70
2022/06/27 02:40:40;;;;;;;5.25;2.67;;;25.20;82.40;;;;;;5137346;27;20053;-62
2022/06/27 02:43:07;;;;;;;4.20;2.65;;;25.40;82.90;;;;;;5138731;27;20047;-71
2022/06/27 02:45:33;;;;;;;4.40;2.83;;;25.50;82.80;;;;;;5136407;27;20042;-71
2022/06/27 02:47:58;;;;;;;6.35;2.47;;;25.20;82.40;;;;;;5153865;27;20049;-71
2022/06/27 02:50:26;;;;;;;5.32;2.70;;;25.30;82.50;;;;;;5137355;27;20038;-72
2022/06/27 02:52:55;;;;;;;7.50;2.85;;;25.50;83.00;;;;;;5137732;27;20094;-70
2022/06/27 02:55:24;;;;;;;5.40;2.80;;;25.60;82.90;;;;;;5154007;27;20039;-68
2022/06/27 02:58:02;;;;;;;4.85;2.90;;;25.30;82.80;;;;;;5093655;27;20047;-71
2022/06/27 03:00:28;;;;;;;5.10;2.65;;;25.50;85.90;;;;;;5135346;27;20662;-72
2022/06/27 03:02:54;;;;;;;4.45;2.50;;;25.60;82.90;;;;;;5130884;27;20134;-71
2022/06/27 03:05:20;;;;;;;5.70;3.17;;;25.50;82.70;;;;;;5137022;27;20486;-72
2022/06/27 03:07:45;;;;;;;4.88;2.60;;;25.40;82.50;;;;;;5155862;27;20055;-70
2022/06/27 03:10:11;;;;;;;5.90;2.80;;;25.30;82.60;;;;;;5153911;27;20137;-70
2022/06/27 03:12:37;;;;;;;3.80;2.30;;;25.30;82.50;;;;;;5155537;27;20054;-72
2022/06/27 03:15:03;;;;;;;5.10;2.45;;;25.20;82.60;;;;;;5137222;27;20043;-71
2022/06/27 03:17:29;;;;;;;4.75;2.60;;;25.40;85.60;;;;;;5154405;27;20069;-75
2022/06/27 03:19:56;;;;;;;4.68;2.35;;;25.50;82.90;;;;;;5140187;27;20042;-77
2022/06/27 03:22:21;;;;;;;4.65;2.70;;;25.50;82.80;;;;;;5137084;27;20532;-75
2022/06/27 03:24:47;;;;;;;5.93;2.40;;;25.50;82.80;;;;;;5154487;27;20046;-78
2022/06/27 03:27:13;;;;;;;5.07;2.58;;;25.10;85.80;;;;;;5155365;27;20486;-78
2022/06/27 03:29:39;;;;;;;4.22;2.50;;;25.30;82.80;;;;;;5154580;27;20102;-74
2022/06/27 03:32:05;;;;;;;4.60;2.60;;;25.40;82.70;;;;;;5154217;27;20119;-78
2022/06/27 03:34:31;;;;;;;3.47;2.20;;;25.40;82.50;;;;;;5119601;27;20034;-75
2022/06/27 03:36:57;;;;;;;4.55;2.58;;;25.50;83.10;;;;;;5120181;27;20074;-76
2022/06/27 03:39:23;;;;;;;4.43;2.53;;;25.40;83.10;;;;;;5136035;27;20038;-77
2022/06/27 03:41:49;;;;;;;5.20;3.05;;;25.10;82.80;;;;;;5154992;27;20095;-75
2022/06/27 03:44:14;;;;;;;4.90;2.30;;;25.50;83.10;;;;;;5154458;27;20031;-78
2022/06/27 03:46:40;;;;;;;3.67;2.20;;;25.20;82.90;;;;;;5155143;27;20039;-77
2022/06/27 03:51:50;;;;;;;4.38;2.25;;;25.30;82.20;;;;;;5136008;27;20039;-76
2022/06/27 03:54:16;;;;;;;6.20;2.40;;;25.20;83.20;;;;;;5135465;27;20485;-77
2022/06/27 03:56:42;;;;;;;3.78;2.30;;;25.40;83.20;;;;;;5154760;27;20451;-79
2022/06/27 03:59:08;;;;;;;3.88;2.20;;;25.30;86.00;;;;;;5136506;27;20126;-65
2022/06/27 04:01:34;;;;;;;4.05;2.47;;;25.40;86.80;;;;;;5130773;27;20058;-63
2022/06/27 04:03:59;;;;;;;4.82;2.40;;;25.60;83.50;;;;;;5135178;27;20046;-78
2022/06/27 04:06:25;;;;;;;4.80;2.58;;;25.40;86.70;;;;;;5152389;27;20050;-77
2022/06/27 04:08:51;;;;;;;4.28;2.30;;;25.30;83.40;;;;;;5155279;27;20081;-77
2022/06/27 04:11:17;;;;;;;4.13;2.38;;;25.30;86.20;;;;;;5153192;27;20082;-77
2022/06/27 04:13:43;;;;;;;5.18;2.45;;;25.40;83.40;;;;;;5134971;27;20077;-76
2022/06/27 04:16:08;;;;;;;4.30;2.20;;;25.20;83.20;;;;;;5154644;27;20038;-70
2022/06/27 04:18:34;;;;;;;4.38;2.65;;;25.40;83.60;;;;;;5135989;27;20081;-77
2022/06/27 04:21:00;;;;;;;4.30;2.25;;;25.40;86.70;;;;;;5117998;27;20054;-73
2022/06/27 04:23:26;;;;;;;5.15;2.30;;;25.30;83.40;;;;;;5153595;27;20067;-78
2022/06/27 04:25:52;;;;;;;3.90;2.28;;;25.30;83.00;;;;;;5106106;28;20058;-78
2022/06/27 04:28:18;;;;;;;4.28;2.25;;;25.40;83.60;;;;;;5092926;27;20130;-78
2022/06/27 04:30:44;;;;;;;4.65;2.45;;;25.50;83.40;;;;;;5118722;27;20126;-74
2022/06/27 04:33:10;;;;;;;3.70;2.28;;;25.20;84.00;;;;;;5152918;27;20035;-75
2022/06/27 04:35:36;;;;;;;4.30;2.20;;;25.30;86.40;;;;;;5145029;27;20500;-72
2022/06/27 04:38:02;;;;;;;3.45;2.08;;;25.30;83.50;;;;;;5155025;27;20097;-78
2022/06/27 04:40:28;;;;;;;5.25;2.35;;;25.30;83.60;;;;;;5130565;28;20058;-64
2022/06/27 04:42:56;;;;;;;4.15;2.30;;;25.20;83.30;;;;;;5123452;27;20388;-63
2022/06/27 04:45:22;;;;;;;4.45;2.60;;;25.50;83.70;;;;;;5152855;27;20043;-78
2022/06/27 04:47:48;;;;;;;5.20;2.13;;;25.20;83.30;;;;;;5154344;27;20122;-77
2022/06/27 04:50:16;;;;;;;3.63;2.33;;;25.20;83.60;;;;;;5118714;27;20508;-77
2022/06/27 04:52:42;;;;;;;3.75;2.28;;;25.30;83.80;;;;;;5154792;27;20042;-70
2022/06/27 04:55:08;;;;;;;3.85;2.38;;;25.20;84.60;;;;;;5130834;27;20051;-72
2022/06/27 04:57:39;;;;;;;4.10;2.30;;;25.10;83.40;;;;;;5123102;27;20082;-79
2022/06/27 05:00:08;;;;;;;4.20;2.20;;;25.20;84.30;;;;;;5135569;27;20046;-79
2022/06/27 05:02:34;;;;;;;4.13;2.28;;;25.20;86.60;;;;;;5151033;27;20042;-67
2022/06/27 05:04:59;;;;;;;3.63;2.15;;;25.30;87.10;;;;;;5151842;27;20094;-64
2022/06/27 05:07:25;;;;;;;4.28;2.10;;;25.30;83.50;;;;;;5133676;27;20078;-77
2022/06/27 05:09:52;;;;;;;3.60;2.30;;;25.40;84.00;;;;;;5153874;27;20042;-79
2022/06/27 05:12:19;;;;;;;5.18;2.42;;;25.50;83.90;;;;;;5152137;27;20042;-79
2022/06/27 05:14:45;;;;;;;3.85;2.40;;;25.00;83.70;;;;;;5135454;27;20398;-75
2022/06/27 05:17:11;;;;;;;4.65;2.42;;;25.30;87.40;;;;;;5154018;27;20105;-76
2022/06/27 05:19:37;;;;;;;4.28;2.22;;;25.20;87.00;;;;;;5153480;27;20050;-77
2022/06/27 05:22:03;;;;;;;4.20;2.30;;;25.20;86.70;;;;;;5135450;27;20155;-76
2022/06/27 05:24:29;;;;;;;4.80;2.50;;;25.20;83.70;;;;;;5132994;27;20050;-77
2022/06/27 05:26:54;;;;;;;4.70;2.50;;;25.10;86.70;;;;;;5153368;27;20175;-69
2022/06/27 05:29:21;;;;;;;6.13;2.33;;;25.10;83.40;;;;;;5132178;27;20035;-65
2022/06/27 05:31:47;;;;;;;3.90;2.35;;;25.10;83.90;;;;;;5154599;27;20051;-76
2022/06/27 05:34:12;;;;;;;4.07;2.50;;;25.00;87.00;;;;;;5133537;27;20053;-77
2022/06/27 05:36:38;;;;;;;3.90;2.28;;;25.30;87.60;;;;;;5133924;27;20034;-74
2022/06/27 05:39:05;;;;;;;3.83;2.30;;;25.40;84.20;;;;;;5153764;27;20034;-77
2022/06/27 05:41:31;;;;;;;3.47;2.47;;;25.20;84.00;;;;;;5135437;27;20411;-77
2022/06/27 05:43:59;;;;;;;4.55;2.40;;;25.20;84.50;;;;;;5120962;27;20047;-78
2022/06/27 05:46:25;;;;;;;3.75;2.28;;;25.30;87.10;;;;;;5157107;27;20054;-70
2022/06/27 05:48:51;;;;;;;4.43;2.30;;;25.20;86.90;;;;;;5120914;27;20035;-77
2022/06/27 05:51:19;;;;;;;3.97;2.30;;;25.20;84.10;;;;;;5138478;27;20118;-77
2022/06/27 05:53:46;;;;;;;3.63;1.90;;;25.10;86.80;;;;;;5155927;27;20066;-71
2022/06/27 05:56:11;;;;;;;4.30;2.20;;;25.10;84.20;;;;;;5137257;27;20121;-77
2022/06/27 05:58:38;;;;;;;4.82;2.40;;;25.30;84.10;;;;;;5138871;27;20461;-72
2022/06/27 06:01:05;;;;;;;4.32;2.33;;;25.40;84.10;;;;;;5120047;27;20061;-77
2022/06/27 06:03:31;;;;;;;3.63;2.20;;;25.20;86.80;;;;;;5155991;27;20369;-73
2022/06/27 06:05:57;;;;;;;4.35;2.22;;;25.50;84.10;;;;;;5155245;27;20059;-72
2022/06/27 06:08:25;;;;;;;4.22;2.25;;;25.20;83.90;;;;;;5154931;27;20418;-73
2022/06/27 06:10:50;;;;;;;4.95;2.65;;;25.10;83.60;;;;;;5138751;27;20098;-71
2022/06/27 06:13:16;;;;;;;5.18;2.45;;;25.40;83.90;;;;;;5137910;27;20047;-72
2022/06/27 06:15:42;;;;;;;5.25;2.63;;;25.20;83.80;;;;;;5155836;27;20038;-68
2022/06/27 06:18:08;;;;;;;5.20;2.55;;;25.30;87.10;;;;;;5155921;27;20928;-72
2022/06/27 06:20:35;;;;;;;4.70;2.50;;;25.30;83.80;;;;;;5134179;27;20058;-62
2022/06/27 06:23:00;;;;;;;3.67;2.25;;;25.10;86.70;;;;;;5137182;27;20042;-62
2022/06/27 06:25:27;;;;;;;5.97;2.42;;;25.20;83.90;;;;;;5106344;27;20476;-71
2022/06/27 06:27:56;;;;;;;3.78;2.28;;;25.20;86.80;;;;;;5151395;27;20042;-71
2022/06/27 06:30:22;;;;;;;4.20;2.55;;;25.10;84.00;;;;;;5154947;27;20078;-71
2022/06/27 06:32:49;;;;;;;4.13;2.20;;;25.20;87.10;;;;;;5155442;27;20034;-71
2022/06/27 06:35:15;;;;;;;4.18;2.50;;;25.20;83.90;;;;;;5156647;27;20139;-70
2022/06/27 06:37:41;;;;;;;4.20;2.38;;;25.40;84.00;;;;;;5156368;27;20455;-64
2022/06/27 06:40:08;;;;;;;4.35;2.60;;;25.10;86.80;;;;;;5154995;27;20046;-66
2022/06/27 06:42:35;;;;;;;4.50;2.20;;;25.30;83.70;;;;;;5154404;27;20502;-70
2022/06/27 06:45:02;;;;;;;4.18;2.40;;;25.10;87.10;;;;;;5155993;27;20050;-72
2022/06/27 06:47:29;;;;;;;4.43;2.60;;;25.40;84.00;;;;;;5151908;27;20038;-70
2022/06/27 06:49:55;;;;;;;4.68;2.63;;;25.30;86.50;;;;;;5149736;27;20053;-64
2022/06/27 06:52:20;;;;;;;4.15;2.58;;;25.30;83.70;;;;;;5131000;27;20102;-72
2022/06/27 06:54:46;;;;;;;5.95;3.38;;;25.30;83.70;;;;;;5133412;27;20118;-72
2022/06/27 06:57:13;;;;;;;5.53;2.50;;;25.20;86.40;;;;;;5134307;27;20043;-68
2022/06/27 06:59:39;;;;;;;4.43;2.50;;;25.40;84.40;;;;;;5155470;27;20437;-64
2022/06/27 07:02:05;;;;;;;5.65;2.47;;;25.10;86.60;;;;;;5120073;27;20039;-72
2022/06/27 07:04:31;;;;;;;4.22;2.83;;;25.10;83.60;;;;;;5137959;27;20126;-72
2022/06/27 07:06:58;;;;;;;3.88;2.35;;;25.30;84.20;;;;;;5137915;27;20050;-70
2022/06/27 07:09:25;;;;;;;4.93;2.40;;;25.00;83.70;;;;;;5154226;27;20384;-71
2022/06/27 07:11:51;;;;;;;5.07;2.67;;;25.60;83.90;;;;;;5137721;27;20487;-69
2022/06/27 07:14:17;;;;;;;5.88;2.78;;;25.10;83.60;;;;;;5137602;27;20050;-71
2022/06/27 07:16:44;;;;;;;3.92;2.53;;;25.20;83.60;;;;;;5114353;27;20047;-71
2022/06/27 07:19:11;;;;;;;7.20;2.53;;;25.30;83.80;;;;;;5136890;27;20043;-70
2022/06/27 07:21:36;;;;;;;6.20;2.72;;;25.10;83.60;;;;;;5156427;27;20445;-70
2022/06/27 07:24:03;;;;;;;4.75;2.67;;;25.30;83.80;;;;;;5155464;27;20122;-67
2022/06/27 07:26:31;;;;;;;4.82;2.75;;;25.30;83.50;;;;;;5151000;27;20043;-65
2022/06/27 07:28:57;;;;;;;6.68;2.90;;;25.20;86.70;;;;;;5126247;27;20039;-62
2022/06/27 07:31:23;;;;;;;4.82;2.63;;;25.20;83.70;;;;;;5153598;27;20095;-62
2022/06/27 07:33:51;;;;;;;4.20;2.65;;;25.20;83.60;;;;;;5154754;27;20038;-62
2022/06/27 07:36:19;;;;;;;6.35;2.90;;;25.20;83.50;;;;;;5155630;27;20027;-62
2022/06/27 07:38:46;;;;;;;4.65;2.60;;;25.40;83.90;;;;;;5156121;27;20070;-63
2022/06/27 07:41:16;;;;;;;6.70;2.78;;;25.30;84.00;;;;;;5136387;27;20043;-69
2022/06/27 07:43:44;;;;;;;5.28;2.67;;;25.10;86.70;;;;;;5137073;27;20101;-72
2022/06/27 07:46:10;;;;;;;7.63;3.03;;;25.10;83.40;;;;;;5120518;27;20081;-72
2022/06/27 07:48:35;;;;;;;5.90;2.38;;;25.10;83.50;;;;;;5135270;27;20483;-62
2022/06/27 07:51:01;;;;;;;4.85;2.40;;;25.10;86.60;;;;;;5154529;27;20099;-68
2022/06/27 07:53:27;;;;;;;4.82;2.58;;;;;;;;;;5154982;27;20046;-70
2022/06/27 07:55:55;;;;;;;7.80;2.78;;;25.20;86.90;;;;;;5156070;27;20387;-73
2022/06/27 10:17:21;;;;;;;7.22;3.25;;;24.50;89.20;;;;;;5115169;27;20066;-68
2022/06/27 10:20:38;;;;;;;5.13;2.90;;;24.60;86.40;;;;;;5117868;27;20110;-62
2022/06/27 10:23:04;;;;;;;5.15;3.10;;;24.40;89.60;;;;;;5052534;28;20215;-63
2022/06/27 10:25:30;;;;;;;6.78;3.03;;;24.40;89.70;;;;;;5031368;28;20068;-62
2022/06/27 10:28:12;;;;;;;5.97;3.38;;;24.60;90.00;;;;;;5036322;28;20041;-65
2022/06/27 10:30:53;;;;;;;6.22;3.28;;;24.60;90.10;;;;;;5049210;28;20048;-63
2022/06/27 10:33:19;;;;;;;6.90;3.20;;;;;;;;;;5050466;28;20080;-66
2022/06/27 10:35:54;;;;;;;11.55;3.67;;;24.40;84.70;;;;;;5044266;28;20037;-72
2022/06/27 10:38:24;;;;;;;6.70;3.13;;;24.50;87.20;;;;;;5053068;28;20053;-72
2022/06/27 10:40:53;;;;;;;6.95;2.80;;;24.20;89.40;;;;;;4997339;28;20125;-72
2022/06/27 10:43:38;;;;;;;6.82;2.92;;;24.50;89.40;;;;;;5021348;28;20448;-72
2022/06/27 10:46:09;;;;;;;6.07;3.13;;;24.60;89.40;;;;;;5020549;28;20057;-65
2022/06/27 10:48:36;;;;;;;5.18;2.72;;;24.60;89.60;;;;;;5029075;28;20114;-67
2022/06/27 10:51:24;;;;;;;4.40;2.30;;;24.60;89.70;;;;;;5048149;28;20064;-69
2022/06/27 10:53:51;;;;;;;4.03;2.47;;;24.60;90.30;;;;;;5036072;28;20061;-69
2022/06/27 10:56:43;;;;;;;6.75;2.67;;;24.60;89.90;;;;;;5043846;28;20367;-72
2022/06/27 10:59:15;;;;;;;5.43;2.30;;;24.60;85.90;;;;;;5055416;28;20060;-74
2022/06/27 11:02:01;;;;;;;5.15;2.40;;;24.80;87.00;;;;;;5055436;28;20093;-71
2022/06/27 11:04:29;;;;;;;4.72;2.35;;;24.70;86.90;;;;;;5012981;28;20104;-70
2022/06/27 11:06:57;;;;;;;5.00;2.63;;;24.90;86.30;;;;;;4991227;28;20166;-74
2022/06/27 11:09:46;;;;;;;5.05;2.10;;;25.00;86.50;;;;;;5027236;28;20543;-73
2022/06/27 11:12:14;;;;;;;4.80;2.30;;;25.20;86.80;;;;;;5012802;28;20050;-71
2022/06/27 11:14:52;;;;;;;4.68;2.20;;;25.10;86.20;;;;;;5011115;28;20061;-73
2022/06/27 11:17:28;;;;;;;6.00;2.30;;;24.90;84.80;;;;;;4991544;28;20495;-69
2022/06/27 11:20:20;;;;;;;4.97;2.30;;;25.10;86.40;;;;;;4976622;28;20062;-68
2022/06/27 11:22:47;;;;;;;3.63;2.03;;;25.30;85.00;;;;;;5001222;28;20056;-67
2022/06/27 11:25:13;;;;;;;3.15;2.08;;;25.30;88.50;;;;;;5010829;28;20053;-69
2022/06/27 11:27:55;;;;;;;5.85;2.45;;;25.30;85.20;;;;;;4980875;28;20112;-74
2022/06/27 11:33:26;;;;;;;3.78;2.08;;;25.30;84.60;;;;;;4984376;28;20053;-71
2022/06/27 11:35:53;;;;;;;3.80;2.05;;;25.30;85.90;;;;;;4971790;28;20058;-73
2022/06/27 11:38:23;;;;;;;4.10;2.15;;;25.10;85.30;;;;;;4985351;28;20432;-73
2022/06/27 11:41:01;;;;;;;4.72;2.08;;;25.40;85.70;;;;;;5004326;28;20135;-73
2022/06/27 11:44:07;;;;;;;4.22;2.33;;;25.40;85.90;;;;;;5048426;28;20048;-65
2022/06/27 11:46:52;;;;;;;4.72;2.40;;;25.10;84.20;;;;;;5051731;28;20041;-72
2022/06/27 11:49:29;;;;;;;4.13;2.10;;;25.10;83.80;;;;;;5110800;27;20047;-73
2022/06/27 11:52:03;;;;;;;5.40;2.70;;;25.40;85.70;;;;;;5124928;27;20074;-69
2022/06/27 11:54:45;;;;;;;4.57;2.50;;;25.40;85.30;;;;;;5136586;27;20054;-67
2022/06/27 11:57:28;;;;;;;5.53;2.38;;;25.40;85.70;;;;;;5144695;27;20057;-72
2022/06/27 11:59:55;;;;;;;;;;;25.40;84.20;;;;;;5154020;27;20068;-71
2022/06/27 12:02:37;;;;;;;6.53;2.25;;;25.20;85.60;;;;;;5137152;27;19926;-71
2022/06/27 12:05:13;;;;;;;5.50;2.53;;;25.30;85.50;;;;;;5135385;27;20427;-72
2022/06/27 12:07:59;;;;;;;4.50;2.50;;;25.20;87.60;;;;;;5153823;27;20043;-70
2022/06/27 12:10:35;;;;;;;4.07;2.20;;;25.60;85.60;;;;;;5131537;27;20051;-72
2022/06/27 12:13:11;;;;;;;3.95;2.22;;;25.30;84.70;;;;;;5134494;27;20073;-67
2022/06/27 12:15:38;;;;;;;4.80;2.40;;;25.60;85.00;;;;;;5143575;27;20368;-71
2022/06/27 12:18:04;;;;;;;4.55;2.33;;;25.50;84.80;;;;;;5153702;27;20125;-65
2022/06/27 12:20:30;;;;;;;3.85;2.17;;;25.60;84.40;;;;;;5154274;27;20476;-67
2022/06/27 12:22:56;;;;;;;4.45;2.60;;;25.80;87.70;;;;;;5154067;27;20050;-67
2022/06/27 12:25:22;;;;;;;4.90;2.47;;;25.40;84.20;;;;;;5154790;27;20092;-64
2022/06/27 12:27:48;;;;;;;4.78;2.35;;;25.70;84.30;;;;;;5154387;27;20039;-68
2022/06/27 12:30:14;;;;;;;6.18;2.58;;;25.70;84.60;;;;;;5154608;27;20050;-63
2022/06/27 12:32:40;;;;;;;4.32;2.20;;;25.60;84.30;;;;;;5151517;27;20035;-66
2022/06/27 12:35:07;;;;;;;4.78;2.58;;;25.50;84.40;;;;;;5146129;27;20078;-73
2022/06/27 12:37:36;;;;;;;3.47;2.10;;;25.50;84.00;;;;;;5115973;28;20055;-73
2022/06/27 12:40:06;;;;;;;4.40;2.50;;;25.60;87.70;;;;;;5141401;27;20039;-73
2022/06/27 12:42:31;;;;;;;4.30;2.30;;;25.60;84.30;;;;;;5155080;27;20118;-70
2022/06/27 12:44:57;;;;;;;3.78;2.10;;;25.50;84.30;;;;;;5120185;27;20051;-70
2022/06/27 12:47:23;;;;;;;3.47;2.08;;;25.50;84.30;;;;;;5154881;27;20057;-71
2022/06/27 12:49:49;;;;;;;3.65;2.03;;;25.40;84.30;;;;;;5137347;27;20042;-65
2022/06/27 12:52:16;;;;;;;4.13;2.17;;;25.40;84.20;;;;;;5159403;27;20051;-66
2022/06/27 12:54:42;;;;;;;3.78;2.00;;;25.40;84.40;;;;;;5157078;27;20096;-68
2022/06/27 12:57:08;;;;;;;6.47;2.47;;;25.40;84.50;;;;;;5156344;27;20043;-69
2022/06/27 12:59:34;;;;;;;3.22;1.90;;;25.50;84.20;;;;;;5158871;27;20043;-70
2022/06/27 13:02:00;;;;;;;4.40;2.13;;;25.70;84.20;;;;;;5158069;27;20035;-72
2022/06/27 13:04:26;;;;;;;4.07;2.28;;;25.50;84.40;;;;;;5159137;27;20030;-71
2022/06/27 13:06:51;;;;;;;5.10;2.13;;;25.50;84.30;;;;;;5156564;27;20078;-72
2022/06/27 13:09:17;;;;;;;4.03;2.10;;;25.60;87.60;;;;;;5139422;27;20130;-70
2022/06/27 13:11:43;;;;;;;4.18;2.33;;;25.50;84.30;;;;;;5158719;27;20073;-69
2022/06/27 13:14:09;;;;;;;4.13;2.20;;;25.60;87.40;;;;;;5157568;27;20121;-71
2022/06/27 13:16:35;;;;;;;4.00;2.35;;;25.30;84.20;;;;;;5158767;27;20077;-72
2022/06/27 13:19:01;;;;;;;4.55;2.17;;;25.40;84.50;;;;;;5157096;27;20072;-65
2022/06/27 13:21:26;;;;;;;3.75;2.20;;;25.60;84.40;;;;;;5158891;27;20046;-69
2022/06/27 13:23:52;;;;;;;3.90;2.22;;;25.50;84.20;;;;;;5158733;27;20045;-69
2022/06/27 13:26:18;;;;;;;4.90;2.38;;;25.40;84.40;;;;;;5157554;27;20368;-71
2022/06/27 13:28:45;;;;;;;4.00;2.20;;;25.40;84.40;;;;;;5158344;27;20049;-69
2022/06/27 13:31:11;;;;;;;3.78;2.30;;;25.50;87.40;;;;;;5135882;27;20479;-72
2022/06/27 13:33:37;;;;;;;3.75;1.98;;;25.50;87.40;;;;;;5156237;27;20035;-67
2022/06/27 13:36:03;;;;;;;4.05;2.13;;;25.50;84.70;;;;;;5134124;27;20394;-74
2022/06/27 13:38:29;;;;;;;3.95;2.20;;;25.30;87.80;;;;;;5147515;27;20035;-71
2022/06/27 13:40:55;;;;;;;4.43;2.28;;;25.40;84.50;;;;;;5102190;27;20046;-70
2022/06/27 13:43:20;;;;;;;3.55;2.03;;;25.30;84.40;;;;;;5153829;27;20122;-71
2022/06/27 13:45:46;;;;;;;4.05;2.40;;;25.20;84.40;;;;;;5157222;27;20038;-72
2022/06/27 13:48:12;;;;;;;6.20;2.30;;;25.30;84.50;;;;;;5121257;27;20463;-71
2022/06/27 13:50:38;;;;;;;4.18;2.22;;;25.30;87.50;;;;;;5156529;27;20038;-68
2022/06/27 13:53:06;;;;;;;4.38;2.25;;;25.60;87.90;;;;;;5154077;27;20039;-65
2022/06/27 13:55:32;;;;;;;3.65;2.05;;;25.40;84.90;;;;;;5139450;27;20392;-71
2022/06/27 13:57:58;;;;;;;4.78;2.25;;;25.30;84.60;;;;;;5155934;27;20080;-72
2022/06/27 14:00:24;;;;;;;4.28;2.15;;;25.40;84.90;;;;;;5152336;27;20128;-70
2022/06/27 14:02:50;;;;;;;4.05;2.13;;;25.40;84.70;;;;;;5136992;27;20074;-72
2022/06/27 14:05:17;;;;;;;4.50;2.28;;;25.40;84.70;;;;;;5140550;27;20049;-70
2022/06/27 14:07:45;;;;;;;4.38;2.30;;;25.20;84.40;;;;;;5141007;27;20043;-72
2022/06/27 14:10:13;;;;;;;5.35;2.00;;;25.20;84.80;;;;;;5132611;27;20038;-72
2022/06/27 14:12:39;;;;;;;3.80;1.90;;;25.30;84.90;;;;;;5157874;27;20046;-64
2022/06/27 14:15:05;;;;;;;4.25;2.10;;;25.30;84.60;;;;;;5134908;27;20579;-69
2022/06/27 14:17:31;;;;;;;3.22;1.83;;;25.30;84.50;;;;;;5118314;27;20141;-67
2022/06/27 14:19:57;;;;;;;3.17;2.10;;;25.40;84.60;;;;;;5154612;27;20122;-70
2022/06/27 14:22:23;;;;;;;3.47;1.90;;;25.30;87.60;;;;;;5156549;27;20047;-69
2022/06/27 14:24:49;;;;;;;3.60;1.98;;;25.20;84.40;;;;;;5157518;27;20395;-69
2022/06/27 14:27:15;;;;;;;3.45;1.90;;;25.40;87.90;;;;;;5134197;27;20481;-67
2022/06/27 14:29:41;;;;;;;3.40;1.80;;;25.50;84.70;;;;;;5134010;27;20103;-75
2022/06/27 14:32:07;;;;;;;3.17;2.00;;;25.30;84.20;;;;;;5157343;27;20038;-67
2022/06/27 14:34:33;;;;;;;3.75;2.20;;;25.50;84.40;;;;;;5130014;27;20047;-72
2022/06/27 14:36:59;;;;;;;3.20;2.00;;;25.40;84.50;;;;;;5136297;27;20118;-73
2022/06/27 14:39:25;;;;;;;4.05;2.13;;;25.10;84.50;;;;;;5141425;27;20050;-70
2022/06/27 14:41:51;;;;;;;3.63;1.90;;;25.10;84.40;;;;;;5156181;27;20066;-69
2022/06/27 14:44:18;;;;;;;4.38;2.10;;;25.10;84.70;;;;;;5156144;27;20113;-73
2022/06/27 14:46:44;;;;;;;4.57;2.28;;;25.10;87.40;;;;;;5157144;27;20047;-64
2022/06/27 14:49:10;;;;;;;4.57;2.22;;;25.00;84.50;;;;;;5133631;27;20085;-71
2022/06/27 14:51:36;;;;;;;4.40;2.70;;;25.10;84.60;;;;;;5153694;27;20042;-65
2022/06/27 14:54:01;;;;;;;6.45;2.17;;;25.10;84.70;;;;;;5156080;27;20377;-69
2022/06/27 14:56:27;;;;;;;4.47;2.40;;;25.00;87.60;;;;;;5137171;27;20099;-72
2022/06/27 14:58:53;;;;;;;5.00;2.17;;;25.30;85.00;;;;;;5156618;27;20050;-68
2022/06/27 15:01:20;;;;;;;4.78;2.05;;;25.20;85.10;;;;;;5134963;27;20066;-69
2022/06/27 15:03:46;;;;;;;5.20;2.20;;;25.00;84.60;;;;;;5137550;27;20488;-67
2022/06/27 15:06:12;;;;;;;3.72;2.10;;;25.10;84.90;;;;;;5136498;27;20042;-71
2022/06/27 15:08:41;;;;;;;4.30;2.38;;;25.20;84.60;;;;;;5135680;27;20075;-65
2022/06/27 15:13:55;;;;;;;5.22;1.98;;;25.10;83.60;;;;;;5126290;27;20065;-64
2022/06/27 15:16:25;;;;;;;5.25;2.20;;;25.10;84.80;;;;;;5137013;27;20122;-67
2022/06/27 15:18:51;;;;;;;5.10;2.28;;;25.00;83.80;;;;;;5137435;27;20057;-67